sensor_id;sensor_type;location;lat;lon;timestamp;pressure;altitude;pressure_sealevel;temperature;humidity
56600;BME280;51832;48.152;11.530;2023-01-30T00:02:22;96025.47;;;0.78;68.16
56600;BME280;51832;48.152;11.530;2023-01-30T00:07:22;96016.56;;;1.16;66.46
56600;BME280;51832;48.152;11.530;2023-01-30T00:12:23;95994.44;;;1.03;66.93
56600;BME280;51832;48.152;11.530;2023-01-30T00:17:24;95991.28;;;0.92;67.50
56600;BME280;51832;48.152;11.530;2023-01-30T00:22:24;95981.63;;;1.02;66.72
56600;BME280;51832;48.152;11.530;2023-01-30T00:27:25;95985.78;;;0.77;67.73
56600;BME280;51832;48.152;11.530;2023-01-30T00:32:26;95982.97;;;1.06;66.89
56600;BME280;51832;48.152;11.530;2023-01-30T00:37:26;95973.19;;;1.00;67.00
56600;BME280;51832;48.152;11.530;2023-01-30T00:42:27;95966.25;;;0.83;68.00
56600;BME280;51832;48.152;11.530;2023-01-30T00:47:49;95957.34;;;0.85;67.49
56600;BME280;51832;48.152;11.530;2023-01-30T00:52:50;95953.44;;;1.25;65.95
56600;BME280;51832;48.152;11.530;2023-01-30T00:57:50;95942.00;;;1.10;66.37
56600;BME280;51832;48.152;11.530;2023-01-30T01:02:51;95938.03;;;0.97;66.88
56600;BME280;51832;48.152;11.530;2023-01-30T01:07:52;95923.94;;;1.18;66.32
56600;BME280;51832;48.152;11.530;2023-01-30T01:12:52;95919.97;;;1.05;66.27
56600;BME280;51832;48.152;11.530;2023-01-30T01:17:53;95921.09;;;0.85;66.90
56600;BME280;51832;48.152;11.530;2023-01-30T01:22:55;95917.53;;;0.86;66.92
56600;BME280;51832;48.152;11.530;2023-01-30T01:27:56;95912.13;;;1.23;65.98
56600;BME280;51832;48.152;11.530;2023-01-30T01:32:56;95920.16;;;1.12;65.55
56600;BME280;51832;48.152;11.530;2023-01-30T01:37:56;95911.31;;;0.97;66.52
56600;BME280;51832;48.152;11.530;2023-01-30T01:42:57;95913.03;;;1.14;65.56
56600;BME280;51832;48.152;11.530;2023-01-30T01:48:03;95898.47;;;1.13;66.17
56600;BME280;51832;48.152;11.530;2023-01-30T01:53:05;95892.81;;;1.18;65.82
56600;BME280;51832;48.152;11.530;2023-01-30T01:58:11;95885.78;;;1.10;65.87
56600;BME280;51832;48.152;11.530;2023-01-30T02:03:20;95897.78;;;1.11;65.41
56600;BME280;51832;48.152;11.530;2023-01-30T02:08:54;95910.53;;;0.79;65.94
56600;BME280;51832;48.152;11.530;2023-01-30T02:13:56;95907.66;;;0.82;66.77
56600;BME280;51832;48.152;11.530;2023-01-30T02:18:58;95909.25;;;0.83;66.58
56600;BME280;51832;48.152;11.530;2023-01-30T02:34:54;95903.97;;;0.66;66.62
56600;BME280;51832;48.152;11.530;2023-01-30T02:45:22;95916.09;;;0.66;66.55
56600;BME280;51832;48.152;11.530;2023-01-30T02:50:35;95917.22;;;0.63;66.70
56600;BME280;51832;48.152;11.530;2023-01-30T02:55:40;95920.13;;;0.86;66.50
56600;BME280;51832;48.152;11.530;2023-01-30T03:11:08;95946.28;;;0.75;66.88
56600;BME280;51832;48.152;11.530;2023-01-30T03:16:21;95930.50;;;0.33;67.69
56600;BME280;51832;48.152;11.530;2023-01-30T03:21:24;95924.38;;;0.52;67.88
56600;BME280;51832;48.152;11.530;2023-01-30T03:26:28;95894.25;;;0.68;67.12
56600;BME280;51832;48.152;11.530;2023-01-30T03:31:30;95891.47;;;0.44;68.29
56600;BME280;51832;48.152;11.530;2023-01-30T03:36:30;95904.59;;;0.15;68.79
56600;BME280;51832;48.152;11.530;2023-01-30T03:41:31;95896.84;;;-0.30;70.32
56600;BME280;51832;48.152;11.530;2023-01-30T03:46:31;95883.94;;;-0.30;70.94
56600;BME280;51832;48.152;11.530;2023-01-30T03:51:32;95882.22;;;0.24;69.37
56600;BME280;51832;48.152;11.530;2023-01-30T03:56:32;95881.97;;;-0.18;69.44
56600;BME280;51832;48.152;11.530;2023-01-30T04:01:32;95883.53;;;-0.08;69.64
56600;BME280;51832;48.152;11.530;2023-01-30T04:06:34;95868.63;;;-0.41;71.01
56600;BME280;51832;48.152;11.530;2023-01-30T04:11:35;95874.69;;;-0.60;71.63
56600;BME280;51832;48.152;11.530;2023-01-30T04:16:35;95889.53;;;-0.34;71.25
56600;BME280;51832;48.152;11.530;2023-01-30T04:21:36;95894.66;;;0.20;68.96
56600;BME280;51832;48.152;11.530;2023-01-30T04:26:36;95890.28;;;0.21;69.21
56600;BME280;51832;48.152;11.530;2023-01-30T04:31:37;95870.09;;;0.42;68.68
56600;BME280;51832;48.152;11.530;2023-01-30T04:36:37;95888.38;;;0.23;69.72
56600;BME280;51832;48.152;11.530;2023-01-30T04:41:37;95884.69;;;-0.20;71.13
56600;BME280;51832;48.152;11.530;2023-01-30T04:46:38;95855.28;;;2.46;78.29
56600;BME280;51832;48.152;11.530;2023-01-30T04:51:38;95832.03;;;1.88;69.02
56600;BME280;51832;48.152;11.530;2023-01-30T04:56:39;95833.56;;;2.56;62.38
56600;BME280;51832;48.152;11.530;2023-01-30T05:01:39;95838.50;;;1.42;65.31
56600;BME280;51832;48.152;11.530;2023-01-30T05:06:39;95837.25;;;0.86;67.94
56600;BME280;51832;48.152;11.530;2023-01-30T05:11:40;95846.78;;;1.12;67.44
56600;BME280;51832;48.152;11.530;2023-01-30T05:16:40;95807.69;;;0.71;67.83
56600;BME280;51832;48.152;11.530;2023-01-30T05:21:41;95809.13;;;0.65;68.76
56600;BME280;51832;48.152;11.530;2023-01-30T05:26:41;95812.03;;;0.45;69.22
56600;BME280;51832;48.152;11.530;2023-01-30T05:31:42;95813.06;;;0.52;68.84
56600;BME280;51832;48.152;11.530;2023-01-30T05:36:42;95829.44;;;0.34;69.05
56600;BME280;51832;48.152;11.530;2023-01-30T05:41:42;95817.47;;;0.59;68.63
56600;BME280;51832;48.152;11.530;2023-01-30T05:46:43;95823.00;;;0.39;68.66
56600;BME280;51832;48.152;11.530;2023-01-30T05:51:43;95806.78;;;0.54;68.38
56600;BME280;51832;48.152;11.530;2023-01-30T05:56:47;95802.06;;;0.14;69.45
56600;BME280;51832;48.152;11.530;2023-01-30T06:01:48;95791.72;;;0.58;68.07
56600;BME280;51832;48.152;11.530;2023-01-30T06:06:49;95813.03;;;0.26;69.13
56600;BME280;51832;48.152;11.530;2023-01-30T06:11:49;95789.56;;;0.27;69.03
56600;BME280;51832;48.152;11.530;2023-01-30T06:16:51;95805.44;;;0.76;67.64
56600;BME280;51832;48.152;11.530;2023-01-30T06:21:51;95795.94;;;0.59;68.11
56600;BME280;51832;48.152;11.530;2023-01-30T06:26:52;95802.19;;;0.74;67.76
56600;BME280;51832;48.152;11.530;2023-01-30T06:31:52;95797.50;;;1.03;67.09
56600;BME280;51832;48.152;11.530;2023-01-30T06:36:53;95796.81;;;0.67;67.62
56600;BME280;51832;48.152;11.530;2023-01-30T06:41:53;95800.78;;;0.80;67.41
56600;BME280;51832;48.152;11.530;2023-01-30T06:46:53;95814.28;;;0.65;68.00
56600;BME280;51832;48.152;11.530;2023-01-30T06:51:54;95811.56;;;0.67;67.90
56600;BME280;51832;48.152;11.530;2023-01-30T06:56:54;95813.06;;;1.03;66.80
56600;BME280;51832;48.152;11.530;2023-01-30T07:01:55;95804.84;;;1.08;66.22
56600;BME280;51832;48.152;11.530;2023-01-30T07:06:55;95813.91;;;1.12;66.49
56600;BME280;51832;48.152;11.530;2023-01-30T07:11:56;95815.06;;;1.18;66.36
56600;BME280;51832;48.152;11.530;2023-01-30T07:16:56;95809.28;;;0.98;66.82
56600;BME280;51832;48.152;11.530;2023-01-30T07:21:57;95841.00;;;0.92;66.11
56600;BME280;51832;48.152;11.530;2023-01-30T07:26:57;95819.91;;;1.13;65.59
56600;BME280;51832;48.152;11.530;2023-01-30T07:31:58;95825.31;;;1.27;64.29
56600;BME280;51832;48.152;11.530;2023-01-30T07:36:58;95804.56;;;1.69;63.84
56600;BME280;51832;48.152;11.530;2023-01-30T07:42:00;95818.59;;;1.51;63.33
56600;BME280;51832;48.152;11.530;2023-01-30T07:47:01;95802.88;;;1.44;62.99
56600;BME280;51832;48.152;11.530;2023-01-30T07:52:02;95807.59;;;1.49;63.00
56600;BME280;51832;48.152;11.530;2023-01-30T07:57:02;95777.09;;;1.51;62.76
56600;BME280;51832;48.152;11.530;2023-01-30T08:02:02;95769.53;;;1.65;61.85
56600;BME280;51832;48.152;11.530;2023-01-30T08:07:03;95760.03;;;2.06;60.71
56600;BME280;51832;48.152;11.530;2023-01-30T08:12:03;95749.00;;;2.04;60.00
56600;BME280;51832;48.152;11.530;2023-01-30T08:17:04;95771.19;;;1.83;60.53
56600;BME280;51832;48.152;11.530;2023-01-30T08:22:04;95782.06;;;1.86;60.33
56600;BME280;51832;48.152;11.530;2023-01-30T08:27:05;95769.25;;;2.49;59.52
56600;BME280;51832;48.152;11.530;2023-01-30T08:32:05;95768.66;;;2.15;59.83
56600;BME280;51832;48.152;11.530;2023-01-30T08:37:05;95752.25;;;2.39;59.87
56600;BME280;51832;48.152;11.530;2023-01-30T08:42:06;95740.56;;;2.43;60.21
56600;BME280;51832;48.152;11.530;2023-01-30T08:47:06;95735.03;;;2.38;59.40
56600;BME280;51832;48.152;11.530;2023-01-30T08:52:07;95743.00;;;2.28;60.31
56600;BME280;51832;48.152;11.530;2023-01-30T08:57:07;95731.84;;;2.91;58.21
56600;BME280;51832;48.152;11.530;2023-01-30T09:02:10;95730.00;;;3.08;57.52
56600;BME280;51832;48.152;11.530;2023-01-30T09:07:10;95722.84;;;3.02;57.82
56600;BME280;51832;48.152;11.530;2023-01-30T09:12:11;95744.34;;;2.88;58.56
56600;BME280;51832;48.152;11.530;2023-01-30T09:17:12;95712.31;;;3.65;55.33
56600;BME280;51832;48.152;11.530;2023-01-30T09:22:12;95725.22;;;3.19;56.43
56600;BME280;51832;48.152;11.530;2023-01-30T09:27:13;95723.13;;;3.23;55.93
56600;BME280;51832;48.152;11.530;2023-01-30T09:32:13;95747.34;;;3.15;56.12
56600;BME280;51832;48.152;11.530;2023-01-30T09:37:14;95752.00;;;3.28;55.96
56600;BME280;51832;48.152;11.530;2023-01-30T09:47:43;95756.38;;;3.36;53.42
56600;BME280;51832;48.152;11.530;2023-01-30T09:57:47;95698.91;;;3.76;52.28
56600;BME280;51832;48.152;11.530;2023-01-30T10:03:10;95679.25;;;4.49;51.36
56600;BME280;51832;48.152;11.530;2023-01-30T10:29:23;95660.03;;;4.50;55.42
56600;BME280;51832;48.152;11.530;2023-01-30T10:34:31;95632.25;;;4.72;55.76
56600;BME280;51832;48.152;11.530;2023-01-30T10:39:43;95631.25;;;4.87;55.51
56600;BME280;51832;48.152;11.530;2023-01-30T10:44:44;95639.06;;;5.02;55.43
56600;BME280;51832;48.152;11.530;2023-01-30T10:49:46;95672.56;;;5.20;55.18
56600;BME280;51832;48.152;11.530;2023-01-30T10:54:59;95612.81;;;5.04;56.54
56600;BME280;51832;48.152;11.530;2023-01-30T11:00:03;95626.03;;;5.81;54.64
56600;BME280;51832;48.152;11.530;2023-01-30T11:05:14;95629.06;;;5.42;55.26
56600;BME280;51832;48.152;11.530;2023-01-30T11:10:26;95627.09;;;5.44;54.61
56600;BME280;51832;48.152;11.530;2023-01-30T11:15:39;95625.25;;;5.23;55.32
56600;BME280;51832;48.152;11.530;2023-01-30T11:20:42;95597.38;;;5.45;55.59
56600;BME280;51832;48.152;11.530;2023-01-30T11:25:52;95604.22;;;5.10;56.96
56600;BME280;51832;48.152;11.530;2023-01-30T11:30:58;95562.09;;;5.27;56.77
56600;BME280;51832;48.152;11.530;2023-01-30T11:36:26;95549.41;;;5.24;57.22
56600;BME280;51832;48.152;11.530;2023-01-30T11:41:28;95564.19;;;5.39;56.52
56600;BME280;51832;48.152;11.530;2023-01-30T11:46:33;95533.66;;;5.60;56.31
56600;BME280;51832;48.152;11.530;2023-01-30T11:51:35;95552.69;;;5.12;57.67
56600;BME280;51832;48.152;11.530;2023-01-30T11:56:51;95573.00;;;5.16;57.86
56600;BME280;51832;48.152;11.530;2023-01-30T12:02:02;95534.25;;;5.56;56.96
56600;BME280;51832;48.152;11.530;2023-01-30T12:07:07;95547.09;;;5.36;57.74
56600;BME280;51832;48.152;11.530;2023-01-30T12:28:35;95516.97;;;5.33;58.80
56600;BME280;51832;48.152;11.530;2023-01-30T12:33:40;95495.38;;;5.40;58.68
56600;BME280;51832;48.152;11.530;2023-01-30T13:10:57;95483.06;;;5.33;60.87
56600;BME280;51832;48.152;11.530;2023-01-30T13:21:33;95518.25;;;5.16;62.03
56600;BME280;51832;48.152;11.530;2023-01-30T13:26:38;95514.00;;;4.94;62.52
56600;BME280;51832;48.152;11.530;2023-01-30T13:31:48;95512.81;;;5.39;60.98
56600;BME280;51832;48.152;11.530;2023-01-30T13:42:01;95506.41;;;5.42;60.67
56600;BME280;51832;48.152;11.530;2023-01-30T13:52:55;95523.69;;;5.00;61.43
56600;BME280;51832;48.152;11.530;2023-01-30T14:03:31;95527.94;;;5.44;60.48
56600;BME280;51832;48.152;11.530;2023-01-30T14:08:34;95554.38;;;5.41;60.80
56600;BME280;51832;48.152;11.530;2023-01-30T14:13:52;95547.63;;;5.74;60.11
56600;BME280;51832;48.152;11.530;2023-01-30T14:18:55;95593.34;;;5.42;60.57
56600;BME280;51832;48.152;11.530;2023-01-30T14:24:03;95579.53;;;5.27;62.19
56600;BME280;51832;48.152;11.530;2023-01-30T14:29:06;95591.78;;;5.26;61.68
56600;BME280;51832;48.152;11.530;2023-01-30T14:34:37;95592.84;;;4.96;63.25
56600;BME280;51832;48.152;11.530;2023-01-30T14:39:39;95587.19;;;5.50;61.93
56600;BME280;51832;48.152;11.530;2023-01-30T14:45:09;95607.78;;;5.23;63.74
56600;BME280;51832;48.152;11.530;2023-01-30T14:50:21;95637.41;;;5.16;63.88
56600;BME280;51832;48.152;11.530;2023-01-30T14:55:25;95634.91;;;4.93;64.69
56600;BME280;51832;48.152;11.530;2023-01-30T15:00:30;95620.47;;;4.90;64.31
56600;BME280;51832;48.152;11.530;2023-01-30T15:05:42;95658.41;;;4.78;64.31
56600;BME280;51832;48.152;11.530;2023-01-30T15:11:14;95630.56;;;5.15;63.80
56600;BME280;51832;48.152;11.530;2023-01-30T15:16:44;95660.41;;;5.27;64.02
56600;BME280;51832;48.152;11.530;2023-01-30T15:27:03;95671.63;;;4.91;65.62
56600;BME280;51832;48.152;11.530;2023-01-30T15:32:24;95679.03;;;5.24;64.95
56600;BME280;51832;48.152;11.530;2023-01-30T15:37:38;95682.66;;;5.08;65.04
56600;BME280;51832;48.152;11.530;2023-01-30T15:52:59;95693.91;;;4.64;67.47
56600;BME280;51832;48.152;11.530;2023-01-30T15:58:04;95718.72;;;4.60;67.71
56600;BME280;51832;48.152;11.530;2023-01-30T16:03:11;95736.88;;;4.83;67.35
56600;BME280;51832;48.152;11.530;2023-01-30T16:08:21;95753.84;;;4.79;67.65
56600;BME280;51832;48.152;11.530;2023-01-30T16:13:23;95761.69;;;4.64;68.15
56600;BME280;51832;48.152;11.530;2023-01-30T16:18:35;95761.06;;;4.77;67.81
56600;BME280;51832;48.152;11.530;2023-01-30T16:23:50;95826.06;;;4.56;68.61
56600;BME280;51832;48.152;11.530;2023-01-30T16:28:57;95787.88;;;4.25;69.76
56600;BME280;51832;48.152;11.530;2023-01-30T16:33:59;95791.22;;;4.57;68.54
56600;BME280;51832;48.152;11.530;2023-01-30T16:38:59;95798.72;;;4.37;69.39
56600;BME280;51832;48.152;11.530;2023-01-30T16:54:35;95817.28;;;4.34;69.14
56600;BME280;51832;48.152;11.530;2023-01-30T16:59:36;95823.22;;;4.51;68.64
56600;BME280;51832;48.152;11.530;2023-01-30T17:04:37;95803.88;;;4.22;70.21
56600;BME280;51832;48.152;11.530;2023-01-30T17:09:41;95834.00;;;4.17;71.39
56600;BME280;51832;48.152;11.530;2023-01-30T17:14:42;95821.97;;;4.16;71.79
56600;BME280;51832;48.152;11.530;2023-01-30T17:19:45;95838.31;;;4.10;72.11
56600;BME280;51832;48.152;11.530;2023-01-30T17:24:45;95852.16;;;4.33;71.44
56600;BME280;51832;48.152;11.530;2023-01-30T17:29:46;95862.16;;;4.21;71.79
56600;BME280;51832;48.152;11.530;2023-01-30T17:34:48;95863.72;;;4.53;70.98
56600;BME280;51832;48.152;11.530;2023-01-30T17:39:48;95874.06;;;4.16;71.40
56600;BME280;51832;48.152;11.530;2023-01-30T17:44:49;95878.25;;;3.94;72.02
56600;BME280;51832;48.152;11.530;2023-01-30T17:49:49;95875.38;;;4.12;71.47
56600;BME280;51832;48.152;11.530;2023-01-30T17:54:49;95858.63;;;4.60;69.23
56600;BME280;51832;48.152;11.530;2023-01-30T17:59:50;95855.66;;;4.40;69.38
56600;BME280;51832;48.152;11.530;2023-01-30T18:04:50;95898.09;;;4.26;69.85
56600;BME280;51832;48.152;11.530;2023-01-30T18:09:51;95913.72;;;4.26;70.23
56600;BME280;51832;48.152;11.530;2023-01-30T18:14:51;95902.88;;;4.45;69.45
56600;BME280;51832;48.152;11.530;2023-01-30T18:19:51;95897.16;;;4.50;69.10
56600;BME280;51832;48.152;11.530;2023-01-30T18:24:53;95915.56;;;4.48;68.62
56600;BME280;51832;48.152;11.530;2023-01-30T18:29:54;95898.94;;;4.18;69.70
56600;BME280;51832;48.152;11.530;2023-01-30T18:34:54;95926.22;;;4.31;69.48
56600;BME280;51832;48.152;11.530;2023-01-30T18:39:55;95934.50;;;4.03;70.45
56600;BME280;51832;48.152;11.530;2023-01-30T18:44:55;95944.00;;;4.27;69.35
56600;BME280;51832;48.152;11.530;2023-01-30T18:49:56;95943.22;;;4.18;69.73
56600;BME280;51832;48.152;11.530;2023-01-30T18:54:56;95958.72;;;4.12;70.17
56600;BME280;51832;48.152;11.530;2023-01-30T18:59:56;95945.94;;;4.56;69.21
56600;BME280;51832;48.152;11.530;2023-01-30T19:04:57;95968.22;;;4.36;69.58
56600;BME280;51832;48.152;11.530;2023-01-30T19:09:57;95956.25;;;4.18;70.32
56600;BME280;51832;48.152;11.530;2023-01-30T19:14:58;95974.34;;;4.51;69.43
56600;BME280;51832;48.152;11.530;2023-01-30T19:19:59;95964.19;;;4.25;70.33
56600;BME280;51832;48.152;11.530;2023-01-30T19:25:01;95973.06;;;4.47;70.00
56600;BME280;51832;48.152;11.530;2023-01-30T19:30:01;95966.41;;;4.67;69.00
56600;BME280;51832;48.152;11.530;2023-01-30T19:35:01;95988.28;;;4.27;70.08
56600;BME280;51832;48.152;11.530;2023-01-30T19:40:02;95999.50;;;4.36;70.03
56600;BME280;51832;48.152;11.530;2023-01-30T19:45:08;95997.25;;;4.63;69.63
56600;BME280;51832;48.152;11.530;2023-01-30T19:50:09;96023.31;;;4.55;69.41
56600;BME280;51832;48.152;11.530;2023-01-30T19:55:10;96035.97;;;4.36;70.96
56600;BME280;51832;48.152;11.530;2023-01-30T20:00:11;96025.84;;;3.85;74.77
56600;BME280;51832;48.152;11.530;2023-01-30T20:05:11;96011.09;;;4.17;73.37
56600;BME280;51832;48.152;11.530;2023-01-30T20:10:11;96006.94;;;4.47;71.32
56600;BME280;51832;48.152;11.530;2023-01-30T20:15:12;96011.97;;;4.40;70.80
56600;BME280;51832;48.152;11.530;2023-01-30T20:20:12;96012.31;;;4.45;70.03
56600;BME280;51832;48.152;11.530;2023-01-30T20:25:13;96005.84;;;4.25;70.67
56600;BME280;51832;48.152;11.530;2023-01-30T20:30:14;95998.84;;;4.34;70.49
56600;BME280;51832;48.152;11.530;2023-01-30T20:35:14;95990.50;;;4.38;69.89
56600;BME280;51832;48.152;11.530;2023-01-30T20:40:16;96017.75;;;4.27;70.13
56600;BME280;51832;48.152;11.530;2023-01-30T20:45:17;96025.75;;;4.18;70.72
56600;BME280;51832;48.152;11.530;2023-01-30T20:50:18;96000.47;;;4.35;70.42
56600;BME280;51832;48.152;11.530;2023-01-30T20:55:18;96048.50;;;4.24;69.91
56600;BME280;51832;48.152;11.530;2023-01-30T21:00:19;96047.13;;;4.05;70.52
56600;BME280;51832;48.152;11.530;2023-01-30T21:05:19;96024.44;;;4.22;70.13
56600;BME280;51832;48.152;11.530;2023-01-30T21:10:20;96016.63;;;4.22;70.39
56600;BME280;51832;48.152;11.530;2023-01-30T21:15:20;96006.69;;;4.56;69.29
56600;BME280;51832;48.152;11.530;2023-01-30T21:20:21;96023.91;;;4.35;69.85
56600;BME280;51832;48.152;11.530;2023-01-30T21:25:21;96018.19;;;4.39;69.50
56600;BME280;51832;48.152;11.530;2023-01-30T21:30:22;96014.81;;;4.31;70.43
56600;BME280;51832;48.152;11.530;2023-01-30T21:35:22;96039.72;;;4.33;70.39
56600;BME280;51832;48.152;11.530;2023-01-30T21:40:22;96037.22;;;4.40;70.76
56600;BME280;51832;48.152;11.530;2023-01-30T21:45:41;96046.28;;;4.13;71.47
56600;BME280;51832;48.152;11.530;2023-01-30T21:50:42;96057.00;;;4.18;71.69
56600;BME280;51832;48.152;11.530;2023-01-30T21:55:48;96053.13;;;3.98;72.20
56600;BME280;51832;48.152;11.530;2023-01-30T22:00:49;96046.56;;;4.26;72.01
56600;BME280;51832;48.152;11.530;2023-01-30T22:05:49;96054.03;;;4.29;71.69
56600;BME280;51832;48.152;11.530;2023-01-30T22:10:49;96083.06;;;4.18;72.23
56600;BME280;51832;48.152;11.530;2023-01-30T22:15:50;96097.72;;;4.03;72.54
56600;BME280;51832;48.152;11.530;2023-01-30T22:20:50;96073.66;;;4.01;72.73
56600;BME280;51832;48.152;11.530;2023-01-30T22:25:54;96073.78;;;4.15;72.53
56600;BME280;51832;48.152;11.530;2023-01-30T22:31:13;96065.44;;;4.28;71.86
56600;BME280;51832;48.152;11.530;2023-01-30T22:36:14;96068.16;;;4.43;71.22
56600;BME280;51832;48.152;11.530;2023-01-30T22:41:17;96066.81;;;4.55;70.37
56600;BME280;51832;48.152;11.530;2023-01-30T22:46:18;96080.81;;;3.99;71.94
56600;BME280;51832;48.152;11.530;2023-01-30T22:51:24;96091.13;;;4.39;70.64
56600;BME280;51832;48.152;11.530;2023-01-30T22:56:32;96072.56;;;4.42;70.14
56600;BME280;51832;48.152;11.530;2023-01-30T23:01:36;96065.88;;;4.48;69.27
56600;BME280;51832;48.152;11.530;2023-01-30T23:06:37;96104.28;;;4.54;68.93
56600;BME280;51832;48.152;11.530;2023-01-30T23:11:43;96066.63;;;4.17;70.08
56600;BME280;51832;48.152;11.530;2023-01-30T23:16:43;96077.84;;;4.65;68.37
56600;BME280;51832;48.152;11.530;2023-01-30T23:21:44;96092.97;;;4.14;69.97
56600;BME280;51832;48.152;11.530;2023-01-30T23:26:48;96096.06;;;4.26;69.89
56600;BME280;51832;48.152;11.530;2023-01-30T23:31:49;96106.88;;;4.54;69.15
56600;BME280;51832;48.152;11.530;2023-01-30T23:36:49;96100.25;;;4.43;69.27
56600;BME280;51832;48.152;11.530;2023-01-30T23:41:49;96097.91;;;4.64;69.07
56600;BME280;51832;48.152;11.530;2023-01-30T23:46:50;96126.53;;;4.73;68.82
56600;BME280;51832;48.152;11.530;2023-01-30T23:51:51;96134.97;;;4.11;70.67
56600;BME280;51832;48.152;11.530;2023-01-30T23:56:52;96128.91;;;4.43;69.88
